Time;durP1;ratioP1;P1;durP2;ratioP2;P2;SDS_P1;SDS_P2;PMS_P1;PMS_P2;Temp;Humidity;BMP_temperature;BMP_pressure;BME280_temperature;BME280_humidity;BME280_pressure;Samples;Min_cycle;Max_cycle;Signal;HPM_P1;HPM_P2
2020/12/08 00:01:53;;;;;;;48.70;28.25;;;-0.20;93.70;;;;;;5113730;28;20924;-75
2020/12/08 00:04:19;;;;;;;51.47;30.52;;;-0.20;93.70;;;;;;5110268;28;20416;-75
2020/12/08 00:06:46;;;;;;;54.15;30.75;;;-0.20;93.60;;;;;;5112663;28;20853;-75
2020/12/08 00:09:12;;;;;;;44.78;25.40;;;-0.20;93.70;;;;;;5111397;28;20736;-74
2020/12/08 00:11:39;;;;;;;46.58;27.80;;;-0.30;93.70;;;;;;5132486;27;20903;-74
2020/12/08 00:14:09;;;;;;;46.28;27.80;;;-0.30;93.80;;;;;;5133547;27;20398;-74
2020/12/08 00:16:41;;;;;;;44.28;26.63;;;-0.30;93.70;;;;;;5112028;27;20400;-75
2020/12/08 00:19:12;;;;;;;41.00;25.30;;;-0.20;93.80;;;;;;5111887;28;20435;-75
2020/12/08 00:21:41;;;;;;;40.55;25.50;;;-0.20;93.90;;;;;;5109355;28;20404;-75
2020/12/08 00:24:07;;;;;;;43.43;25.97;;;-0.30;93.50;;;;;;5112442;28;20408;-75
2020/12/08 00:26:35;;;;;;;40.85;24.67;;;-0.30;93.90;;;;;;5110153;28;20435;-75
2020/12/08 00:29:02;;;;;;;42.47;25.45;;;-0.30;93.90;;;;;;5112583;28;20450;-75
2020/12/08 00:31:30;;;;;;;40.40;24.27;;;-0.20;93.90;;;;;;5108863;28;20464;-75
2020/12/08 00:33:57;;;;;;;41.00;24.87;;;-0.20;93.80;;;;;;5113369;28;20405;-75
2020/12/08 00:36:25;;;;;;;40.90;23.65;;;-0.30;93.90;;;;;;5109345;28;20405;-74
2020/12/08 00:38:56;;;;;;;40.00;24.27;;;-0.30;93.70;;;;;;5113513;28;20461;-74
2020/12/08 00:41:23;;;;;;;41.35;24.80;;;-0.30;93.80;;;;;;5110633;28;20416;-75
2020/12/08 00:43:51;;;;;;;33.50;22.00;;;-0.40;93.90;;;;;;5112705;28;20416;-75
2020/12/08 00:46:19;;;;;;;40.08;24.13;;;-0.40;93.60;;;;;;5110920;28;20420;-75
2020/12/08 00:48:46;;;;;;;36.40;23.50;;;-0.40;93.50;;;;;;5111548;28;20453;-75
2020/12/08 00:51:17;;;;;;;40.67;23.83;;;-0.50;93.50;;;;;;5112302;28;20401;-74
2020/12/08 00:53:45;;;;;;;45.77;25.53;;;-0.50;93.60;;;;;;5109044;28;20423;-74
2020/12/08 00:56:16;;;;;;;47.53;25.43;;;-0.60;93.70;;;;;;5112321;28;20424;-73
2020/12/08 00:58:44;;;;;;;43.85;24.27;;;-0.50;93.90;;;;;;5109359;28;20684;-73
2020/12/08 01:01:11;;;;;;;44.00;25.70;;;-0.50;93.60;;;;;;5112151;28;20404;-73
2020/12/08 01:03:40;;;;;;;39.47;23.00;;;-0.50;94.00;;;;;;5109681;28;20783;-74
2020/12/08 01:06:11;;;;;;;51.15;29.52;;;-0.60;93.80;;;;;;5112908;28;20452;-74
2020/12/08 01:08:38;;;;;;;45.55;27.10;;;-0.60;93.60;;;;;;5109861;27;20508;-74
2020/12/08 01:11:04;;;;;;;41.90;24.40;;;-0.60;93.80;;;;;;5111788;28;20432;-74
2020/12/08 01:13:34;;;;;;;34.22;21.67;;;-0.60;93.60;;;;;;5109610;28;20401;-74
2020/12/08 01:16:02;;;;;;;32.05;20.67;;;-0.60;93.90;;;;;;5111697;28;20388;-73
2020/12/08 01:18:29;;;;;;;37.45;21.02;;;-0.70;94.00;;;;;;5109665;28;20408;-74
2020/12/08 01:20:55;;;;;;;33.10;20.30;;;-0.70;93.90;;;;;;5112590;28;20447;-74
2020/12/08 01:23:25;;;;;;;35.83;20.80;;;-0.70;93.90;;;;;;5110046;28;20896;-74
2020/12/08 01:25:52;;;;;;;35.90;21.48;;;-0.80;93.90;;;;;;5107545;28;20489;-74
2020/12/08 01:28:20;;;;;;;32.55;20.02;;;-0.80;93.80;;;;;;5112521;28;20400;-74
2020/12/08 01:30:48;;;;;;;36.63;21.40;;;-0.80;93.50;;;;;;5094930;27;20506;-74
2020/12/08 01:33:14;;;;;;;39.97;21.30;;;-0.90;93.90;;;;;;5114963;27;20398;-74
2020/12/08 01:35:46;;;;;;;45.50;23.10;;;-0.90;93.90;;;;;;5113686;27;20404;-74
2020/12/08 01:38:13;;;;;;;45.00;23.70;;;-0.80;94.40;;;;;;5094453;28;20396;-74
2020/12/08 01:40:39;;;;;;;38.25;21.70;;;-0.80;94.20;;;;;;5109538;28;20404;-74
2020/12/08 01:43:05;;;;;;;36.60;20.75;;;-0.70;94.20;;;;;;5112201;28;20513;-74
2020/12/08 01:45:34;;;;;;;32.50;19.70;;;-0.80;94.10;;;;;;5097892;27;20807;-74
2020/12/08 01:48:03;;;;;;;33.13;19.90;;;-0.80;93.90;;;;;;5132782;27;20840;-74
2020/12/08 01:50:29;;;;;;;36.60;20.33;;;-0.80;94.00;;;;;;5105190;28;20396;-74
2020/12/08 01:52:58;;;;;;;32.30;19.05;;;-0.90;94.00;;;;;;5094107;28;20890;-73
2020/12/08 01:55:25;;;;;;;30.80;19.00;;;-1.00;94.00;;;;;;5090609;28;20408;-74
2020/12/08 01:57:51;;;;;;;33.08;19.92;;;-1.00;93.90;;;;;;5112098;28;20458;-73
2020/12/08 02:00:21;;;;;;;33.10;19.65;;;-1.10;93.80;;;;;;5093958;28;20431;-74
2020/12/08 02:02:50;;;;;;;33.45;19.98;;;-1.10;93.90;;;;;;5090068;28;20424;-73
2020/12/08 02:05:16;;;;;;;34.22;20.25;;;-1.20;93.90;;;;;;5111599;28;20775;-74
2020/12/08 02:07:43;;;;;;;34.88;19.10;;;-1.10;94.00;;;;;;5093824;27;20789;-74
2020/12/08 02:10:10;;;;;;;29.23;18.85;;;-1.10;93.90;;;;;;5113921;27;20830;-74
2020/12/08 02:12:36;;;;;;;31.67;19.55;;;-1.10;94.20;;;;;;5097496;28;20462;-73
2020/12/08 02:15:04;;;;;;;34.25;19.35;;;-1.10;94.30;;;;;;5111280;28;20704;-74
2020/12/08 02:17:30;;;;;;;30.40;18.65;;;-1.10;94.40;;;;;;5109073;28;20855;-73
2020/12/08 02:20:00;;;;;;;27.75;18.95;;;-1.20;94.10;;;;;;5077167;28;20453;-74
2020/12/08 02:22:27;;;;;;;33.05;19.63;;;-1.20;94.20;;;;;;5090969;28;20408;-73
2020/12/08 02:24:53;;;;;;;29.20;18.33;;;-1.20;94.30;;;;;;5111370;28;20443;-74
2020/12/08 02:27:20;;;;;;;34.45;19.15;;;-1.30;94.10;;;;;;5088532;28;20431;-74
2020/12/08 02:29:46;;;;;;;30.83;19.80;;;-1.30;94.30;;;;;;5073802;28;20849;-73
2020/12/08 02:32:12;;;;;;;32.80;18.70;;;-1.10;94.40;;;;;;5073748;28;20406;-73
2020/12/08 02:34:39;;;;;;;32.72;18.48;;;-1.10;94.20;;;;;;5110803;28;20422;-74
2020/12/08 02:37:05;;;;;;;28.17;18.27;;;-1.30;94.00;;;;;;5115633;28;20390;-74
2020/12/08 02:39:31;;;;;;;30.23;18.75;;;-1.40;94.10;;;;;;5087474;28;20410;-74
2020/12/08 02:41:58;;;;;;;29.57;17.77;;;-1.40;94.10;;;;;;5090795;28;20445;-74
2020/12/08 02:44:25;;;;;;;34.10;18.40;;;-1.40;94.10;;;;;;5087829;28;20500;-74
2020/12/08 02:46:51;;;;;;;32.53;19.33;;;-1.50;94.30;;;;;;5073384;28;20492;-74
2020/12/08 02:49:20;;;;;;;39.13;23.83;;;-1.50;94.20;;;;;;5073150;28;20407;-74
2020/12/08 02:51:46;;;;;;;35.53;22.00;;;-1.40;94.20;;;;;;5093590;28;20763;-74
2020/12/08 02:54:13;;;;;;;33.42;20.30;;;-1.40;94.50;;;;;;5083949;28;20473;-74
2020/12/08 02:56:39;;;;;;;30.58;19.40;;;-1.40;94.40;;;;;;5090639;28;20468;-74
2020/12/08 02:59:05;;;;;;;30.48;19.63;;;-1.40;94.30;;;;;;5089384;28;20402;-74
2020/12/08 03:01:32;;;;;;;30.33;18.33;;;-1.40;94.20;;;;;;5110742;28;20465;-74
2020/12/08 03:03:58;;;;;;;32.63;19.27;;;-1.40;94.00;;;;;;5111437;28;20412;-73
2020/12/08 03:06:25;;;;;;;31.90;19.40;;;-1.40;93.80;;;;;;5087175;28;20418;-74
2020/12/08 03:08:51;;;;;;;32.42;19.73;;;-1.50;93.80;;;;;;5090347;28;20464;-74
2020/12/08 03:11:17;;;;;;;32.85;19.48;;;-1.50;94.10;;;;;;5087137;28;20586;-74
2020/12/08 03:13:46;;;;;;;35.08;19.27;;;-1.50;94.50;;;;;;5072715;28;20441;-74
2020/12/08 03:16:19;;;;;;;32.83;19.42;;;-1.60;94.30;;;;;;5074943;28;20856;-74
2020/12/08 03:18:45;;;;;;;29.02;18.05;;;-1.50;94.30;;;;;;5070650;28;20399;-74
2020/12/08 03:21:12;;;;;;;30.98;19.98;;;-1.60;93.90;;;;;;5059944;28;20464;-74
2020/12/08 03:23:40;;;;;;;33.97;19.92;;;-1.70;93.90;;;;;;5090490;28;20441;-74
2020/12/08 03:26:06;;;;;;;35.60;21.45;;;-1.70;94.10;;;;;;5088783;28;20921;-74
2020/12/08 03:28:32;;;;;;;36.70;20.20;;;-1.70;94.40;;;;;;5090075;28;20829;-74
2020/12/08 03:31:04;;;;;;;34.33;20.08;;;-1.70;94.30;;;;;;5090639;28;20400;-73
2020/12/08 03:33:30;;;;;;;29.08;19.08;;;-1.70;94.20;;;;;;5111374;28;20400;-73
2020/12/08 03:35:58;;;;;;;30.00;18.27;;;-1.70;94.40;;;;;;5107418;28;20800;-73
2020/12/08 03:38:24;;;;;;;31.88;18.80;;;-1.70;94.20;;;;;;5110821;28;20519;-73
2020/12/08 03:40:53;;;;;;;31.20;19.57;;;-1.70;94.10;;;;;;5093139;28;20478;-74
2020/12/08 03:43:24;;;;;;;29.58;18.20;;;-1.70;94.10;;;;;;5107336;28;21133;-74
2020/12/08 03:45:52;;;;;;;31.10;19.08;;;-1.70;94.10;;;;;;5110792;28;20424;-74
2020/12/08 03:48:19;;;;;;;30.95;19.20;;;-1.70;94.30;;;;;;5089220;28;20405;-74
2020/12/08 03:50:45;;;;;;;29.30;17.55;;;-1.60;94.30;;;;;;5092920;28;20721;-74
2020/12/08 03:53:12;;;;;;;29.10;17.63;;;-1.70;93.80;;;;;;5090623;28;20404;-73
2020/12/08 03:55:40;;;;;;;32.28;18.77;;;-1.80;93.60;;;;;;5096194;28;20910;-73
2020/12/08 03:58:07;;;;;;;26.23;16.53;;;-1.80;93.70;;;;;;5118926;27;20503;-73
2020/12/08 04:00:33;;;;;;;27.70;16.75;;;-1.80;94.00;;;;;;5117239;27;20493;-73
2020/12/08 04:03:00;;;;;;;33.47;20.33;;;-1.90;94.00;;;;;;5110802;28;20487;-74
2020/12/08 04:05:26;;;;;;;32.72;19.05;;;-1.80;94.10;;;;;;5096502;28;20424;-74
2020/12/08 04:07:52;;;;;;;30.23;17.67;;;-1.80;94.10;;;;;;5092202;28;20656;-74
2020/12/08 04:10:20;;;;;;;31.60;18.38;;;-1.90;93.90;;;;;;5114544;28;20752;-74
2020/12/08 04:12:46;;;;;;;34.15;19.17;;;-1.90;94.10;;;;;;5096321;28;20396;-74
2020/12/08 04:15:12;;;;;;;30.37;18.27;;;-1.90;94.30;;;;;;5092028;28;20473;-73
2020/12/08 04:17:39;;;;;;;28.38;17.73;;;-1.90;94.20;;;;;;5095629;28;20477;-74
2020/12/08 04:20:05;;;;;;;30.63;17.77;;;-2.00;94.00;;;;;;5092301;28;20489;-73
2020/12/08 04:22:32;;;;;;;27.10;17.17;;;-2.00;94.10;;;;;;5113603;28;20464;-74
2020/12/08 04:24:58;;;;;;;32.60;19.23;;;-2.00;94.00;;;;;;5092352;28;20413;-74
2020/12/08 04:27:25;;;;;;;31.77;19.00;;;-2.00;94.40;;;;;;5095425;28;20440;-74
2020/12/08 04:29:54;;;;;;;29.10;18.27;;;-2.00;94.40;;;;;;5092039;28;20420;-74
2020/12/08 04:32:20;;;;;;;27.37;16.97;;;-2.00;94.30;;;;;;5095960;28;20400;-74
2020/12/08 04:34:46;;;;;;;29.67;17.05;;;-2.00;94.30;;;;;;5109853;28;20404;-74
2020/12/08 04:37:15;;;;;;;28.88;18.00;;;-2.00;94.30;;;;;;5095383;28;20458;-74
2020/12/08 04:39:42;;;;;;;28.85;17.27;;;-2.00;94.20;;;;;;5092307;28;20513;-74
2020/12/08 04:42:08;;;;;;;30.40;19.25;;;-2.00;94.00;;;;;;5113337;28;20428;-73
2020/12/08 04:44:37;;;;;;;31.10;18.80;;;-2.00;94.20;;;;;;5113392;28;20454;-74
2020/12/08 04:47:07;;;;;;;29.23;18.37;;;-2.00;93.90;;;;;;5109484;28;20434;-74
2020/12/08 04:49:35;;;;;;;29.50;18.67;;;-2.00;94.10;;;;;;5095591;28;20400;-73
2020/12/08 04:52:01;;;;;;;28.92;18.08;;;-2.10;93.80;;;;;;5109809;28;20856;-73
2020/12/08 04:54:29;;;;;;;31.50;17.20;;;-2.10;93.90;;;;;;5095602;28;20411;-74
2020/12/08 04:56:56;;;;;;;29.73;17.92;;;-2.10;93.80;;;;;;5097503;28;20467;-74
2020/12/08 04:59:23;;;;;;;34.20;18.77;;;-2.10;93.80;;;;;;5099535;28;20411;-73
2020/12/08 05:01:50;;;;;;;32.70;20.15;;;-2.10;93.90;;;;;;5108882;28;20461;-74
2020/12/08 05:04:24;;;;;;;38.45;23.08;;;-2.10;94.10;;;;;;5094810;28;20439;-73
2020/12/08 05:07:10;;;;;;;38.40;22.52;;;-2.10;94.00;;;;;;5109086;28;20432;-74
2020/12/08 05:09:45;;;;;;;34.10;21.48;;;-2.20;93.90;;;;;;5095097;28;20408;-73
2020/12/08 05:12:19;;;;;;;34.67;21.23;;;-2.20;94.00;;;;;;5109899;28;20404;-74
2020/12/08 05:14:46;;;;;;;39.00;20.20;;;-2.20;94.20;;;;;;5094789;28;20836;-73
2020/12/08 05:17:12;;;;;;;35.10;21.02;;;-2.20;94.10;;;;;;5109464;28;20465;-73
2020/12/08 05:19:38;;;;;;;33.30;20.98;;;-2.10;94.20;;;;;;5112855;28;20442;-74
2020/12/08 05:22:08;;;;;;;31.75;19.98;;;-2.20;94.30;;;;;;5091469;28;20444;-74
2020/12/08 05:24:35;;;;;;;33.47;20.17;;;-2.20;94.30;;;;;;5113331;28;20400;-73
2020/12/08 05:27:03;;;;;;;31.63;19.30;;;-2.10;94.50;;;;;;5111276;28;20508;-74
2020/12/08 05:29:32;;;;;;;33.57;20.83;;;-2.10;94.50;;;;;;5091818;28;20427;-74
2020/12/08 05:32:16;;;;;;;53.93;32.80;;;-2.10;94.40;;;;;;5094600;28;20427;-74
2020/12/08 05:34:46;;;;;;;37.70;24.08;;;-2.10;94.20;;;;;;5090959;28;20408;-74
2020/12/08 05:37:18;;;;;;;34.13;20.52;;;-2.20;94.20;;;;;;5094561;28;20477;-73
2020/12/08 05:39:47;;;;;;;32.45;20.58;;;-2.20;94.60;;;;;;5109222;28;20505;-73
2020/12/08 05:42:22;;;;;;;38.90;22.67;;;-2.10;94.40;;;;;;5112412;28;20461;-73
2020/12/08 05:44:50;;;;;;;32.88;21.05;;;-2.10;94.40;;;;;;5091872;28;20473;-73
2020/12/08 05:47:21;;;;;;;30.85;19.27;;;-2.10;94.30;;;;;;5093984;28;20424;-73
2020/12/08 05:50:01;;;;;;;31.13;19.15;;;-2.10;94.30;;;;;;5090850;28;20461;-73
2020/12/08 05:52:29;;;;;;;34.00;19.73;;;-2.10;94.30;;;;;;5111756;28;20820;-73
2020/12/08 05:55:16;;;;;;;33.08;18.95;;;-2.10;94.30;;;;;;5091042;28;20484;-73
2020/12/08 05:57:44;;;;;;;32.10;20.25;;;-2.20;94.20;;;;;;5094153;28;20408;-73
2020/12/08 06:00:27;;;;;;;28.17;17.88;;;-2.20;94.50;;;;;;5094140;28;20446;-74
2020/12/08 06:03:06;;;;;;;34.25;20.80;;;-2.20;94.40;;;;;;5111692;28;20427;-73
2020/12/08 06:05:39;;;;;;;33.05;20.10;;;-2.20;94.70;;;;;;5090244;28;20529;-73
2020/12/08 06:08:24;;;;;;;31.25;19.60;;;-2.20;94.70;;;;;;5094129;28;20420;-73
2020/12/08 06:10:52;;;;;;;30.05;19.13;;;-2.20;94.50;;;;;;5098503;28;20917;-73
2020/12/08 06:13:29;;;;;;;32.63;19.48;;;-2.20;94.50;;;;;;5091336;28;20773;-73
2020/12/08 06:15:59;;;;;;;32.25;20.05;;;-2.30;94.40;;;;;;5078186;28;20472;-73
2020/12/08 06:18:37;;;;;;;35.80;21.13;;;-2.30;94.50;;;;;;5092871;28;20453;-73
2020/12/08 06:21:20;;;;;;;52.90;28.63;;;-2.20;94.70;;;;;;5093702;28;20511;-73
2020/12/08 06:23:53;;;;;;;49.65;25.95;;;-2.10;94.40;;;;;;5110443;28;20397;-74
2020/12/08 06:26:34;;;;;;;45.13;26.40;;;-2.20;94.40;;;;;;5110787;27;20975;-74
2020/12/08 06:29:08;;;;;;;63.05;37.72;;;-2.20;94.50;;;;;;5110905;28;20781;-74
2020/12/08 06:31:46;;;;;;;51.75;32.92;;;-2.30;94.70;;;;;;5090507;28;20849;-74
2020/12/08 06:34:41;;;;;;;59.17;37.22;;;-2.30;94.50;;;;;;5111017;28;20444;-74
2020/12/08 06:37:08;;;;;;;46.33;28.13;;;-2.20;94.60;;;;;;5099985;27;20418;-73
2020/12/08 06:39:34;;;;;;;37.35;21.98;;;-2.30;94.50;;;;;;5073298;28;20495;-74
2020/12/08 06:42:12;;;;;;;36.00;21.85;;;-2.20;94.50;;;;;;5093131;28;20458;-74
2020/12/08 06:44:39;;;;;;;174.40;72.15;;;-2.20;94.40;;;;;;5093338;28;20412;-74
2020/12/08 06:47:05;;;;;;;68.55;31.92;;;-2.20;94.30;;;;;;5088941;28;20489;-73
2020/12/08 06:49:36;;;;;;;64.70;31.07;;;-2.10;94.50;;;;;;5092802;28;20860;-74
2020/12/08 06:52:08;;;;;;;63.13;31.33;;;-2.10;94.10;;;;;;5091307;28;20404;-74
2020/12/08 06:54:35;;;;;;;53.63;27.52;;;-2.20;94.10;;;;;;5072726;28;20420;-73
2020/12/08 06:57:03;;;;;;;49.70;24.42;;;-2.20;94.30;;;;;;5073045;28;20410;-74
2020/12/08 06:59:29;;;;;;;46.65;24.05;;;-2.20;94.40;;;;;;5088704;28;20419;-74
2020/12/08 07:01:57;;;;;;;47.45;24.60;;;-2.20;94.30;;;;;;5093066;28;20461;-74
2020/12/08 07:04:27;;;;;;;95.68;42.65;;;-2.20;94.30;;;;;;5077019;28;20426;-74
2020/12/08 07:06:53;;;;;;;87.88;38.35;;;-2.10;94.40;;;;;;5108401;27;20402;-74
2020/12/08 07:09:20;;;;;;;70.40;31.73;;;-2.10;94.20;;;;;;5123502;27;20400;-76
2020/12/08 07:11:47;;;;;;;65.78;31.00;;;-2.10;94.50;;;;;;5103369;28;20401;-74
2020/12/08 07:14:16;;;;;;;54.45;27.40;;;-1.90;94.40;;;;;;5089440;28;20888;-75
2020/12/08 07:16:42;;;;;;;44.95;24.98;;;-1.80;93.90;;;;;;5092601;28;20404;-75
2020/12/08 07:19:11;;;;;;;76.55;35.70;;;-1.80;94.00;;;;;;5089494;28;20709;-75
2020/12/08 07:21:37;;;;;;;56.22;28.75;;;-1.80;94.10;;;;;;5111067;28;20435;-75
2020/12/08 07:24:09;;;;;;;43.80;23.50;;;-1.80;93.90;;;;;;5087843;28;20497;-76
2020/12/08 07:26:38;;;;;;;37.97;21.27;;;-1.70;94.10;;;;;;5090041;28;20430;-75
2020/12/08 07:29:05;;;;;;;36.28;20.35;;;-1.50;94.20;;;;;;5091171;28;20457;-76
2020/12/08 07:31:32;;;;;;;38.63;23.42;;;-1.30;93.90;;;;;;5113433;28;20492;-76
2020/12/08 07:33:59;;;;;;;36.43;21.13;;;-1.30;93.40;;;;;;5117306;27;20858;-76
2020/12/08 07:36:29;;;;;;;35.55;22.40;;;-1.30;93.00;;;;;;5113592;27;20403;-76
2020/12/08 07:39:00;;;;;;;38.20;25.00;;;-1.30;93.50;;;;;;5096847;28;20810;-73
2020/12/08 07:41:31;;;;;;;28.10;18.45;;;-1.30;93.50;;;;;;5111035;28;20400;-73
2020/12/08 07:43:59;;;;;;;31.20;18.73;;;-1.30;93.70;;;;;;5096807;28;20412;-74
2020/12/08 07:46:30;;;;;;;33.63;21.48;;;-1.40;93.80;;;;;;5110915;28;20832;-73
2020/12/08 07:49:10;;;;;;;34.80;21.45;;;-1.20;94.10;;;;;;5095766;28;20501;-73
2020/12/08 07:51:38;;;;;;;32.72;20.15;;;-1.20;93.50;;;;;;5110509;28;20469;-74
2020/12/08 07:54:06;;;;;;;30.50;18.10;;;-1.20;93.60;;;;;;5114385;28;20571;-74
2020/12/08 07:56:38;;;;;;;25.00;15.75;;;-1.20;93.70;;;;;;5092524;28;20894;-74
2020/12/08 07:59:05;;;;;;;27.80;15.80;;;-1.10;93.70;;;;;;5094768;28;20430;-74
2020/12/08 08:01:47;;;;;;;24.20;14.43;;;-1.10;94.00;;;;;;5092454;28;20489;-74
2020/12/08 08:04:16;;;;;;;22.45;14.43;;;-1.10;93.60;;;;;;5095440;28;20400;-74
2020/12/08 08:06:46;;;;;;;23.03;13.90;;;-1.00;93.50;;;;;;5114439;27;20495;-74
2020/12/08 08:09:13;;;;;;;30.08;18.23;;;-0.90;93.30;;;;;;5134641;27;20390;-74
2020/12/08 08:11:42;;;;;;;26.65;15.30;;;-0.70;93.60;;;;;;5128441;27;20466;-74
2020/12/08 08:14:08;;;;;;;26.57;15.07;;;-0.50;92.90;;;;;;5093672;28;20402;-74
2020/12/08 08:16:35;;;;;;;27.08;17.08;;;-0.50;93.00;;;;;;5103210;28;20424;-74
2020/12/08 08:19:02;;;;;;;36.50;21.88;;;-0.40;93.00;;;;;;5094035;28;20410;-74
2020/12/08 08:21:31;;;;;;;33.30;19.88;;;-0.30;92.60;;;;;;5104855;28;20434;-74
2020/12/08 08:23:58;;;;;;;30.02;17.50;;;-0.40;92.70;;;;;;5090413;28;20432;-74
2020/12/08 08:26:26;;;;;;;31.57;18.33;;;-0.30;92.80;;;;;;5094858;28;20428;-74
2020/12/08 08:28:53;;;;;;;30.90;18.33;;;-0.30;92.70;;;;;;5109317;28;20448;-74
2020/12/08 08:31:19;;;;;;;36.67;20.70;;;-0.30;92.80;;;;;;5112302;28;20933;-74
2020/12/08 08:33:46;;;;;;;36.28;21.42;;;-0.30;93.00;;;;;;5085233;28;20426;-74
2020/12/08 08:36:13;;;;;;;39.38;21.55;;;0.10;92.90;;;;;;5095931;28;20448;-74
2020/12/08 08:38:42;;;;;;;33.88;20.85;;;0.10;92.20;;;;;;5091415;28;20429;-74
2020/12/08 08:41:09;;;;;;;41.30;23.33;;;-0.10;92.40;;;;;;5094051;28;20400;-74
2020/12/08 08:43:38;;;;;;;45.28;25.13;;;-0.10;92.80;;;;;;5091640;28;20465;-74
2020/12/08 08:46:05;;;;;;;44.60;25.60;;;-0.20;92.80;;;;;;5112390;28;20800;-74
2020/12/08 08:48:31;;;;;;;39.83;23.00;;;-0.20;93.20;;;;;;5094607;28;20393;-74
2020/12/08 08:50:58;;;;;;;35.55;21.25;;;-0.10;93.10;;;;;;5095202;28;21019;-74
2020/12/08 08:53:24;;;;;;;39.95;21.08;;;-0.10;93.10;;;;;;5092546;28;20785;-74
2020/12/08 08:55:50;;;;;;;34.23;21.00;;;0.00;93.20;;;;;;5105560;28;20416;-75
2020/12/08 08:58:23;;;;;;;32.33;18.88;;;0.10;93.10;;;;;;5112456;28;20451;-74
2020/12/08 09:00:49;;;;;;;32.17;18.13;;;0.10;93.00;;;;;;5100665;27;20456;-74
2020/12/08 09:03:18;;;;;;;30.98;17.77;;;0.10;92.70;;;;;;5074216;28;20854;-74
2020/12/08 09:05:48;;;;;;;31.00;18.35;;;0.20;92.70;;;;;;5082438;28;20405;-74
2020/12/08 09:08:15;;;;;;;29.35;17.60;;;0.20;92.80;;;;;;5112080;28;20420;-74
2020/12/08 09:10:43;;;;;;;29.23;17.95;;;0.30;92.50;;;;;;5107626;27;20884;-74
2020/12/08 09:13:14;;;;;;;26.58;16.80;;;0.30;92.50;;;;;;5093663;28;20489;-74
2020/12/08 09:15:44;;;;;;;31.10;17.83;;;0.40;92.60;;;;;;5090502;28;20400;-74
2020/12/08 09:18:11;;;;;;;41.42;22.55;;;0.50;92.60;;;;;;5112003;28;20401;-74
2020/12/08 09:20:37;;;;;;;31.15;19.35;;;0.60;92.50;;;;;;5107371;28;21208;-74
2020/12/08 09:23:05;;;;;;;32.03;18.73;;;0.60;92.30;;;;;;5111762;28;20416;-74
2020/12/08 09:25:32;;;;;;;25.83;16.40;;;0.60;92.20;;;;;;5074967;28;20441;-74
2020/12/08 09:27:58;;;;;;;24.67;16.02;;;0.60;92.40;;;;;;5089582;28;20424;-74
2020/12/08 09:30:25;;;;;;;26.52;15.13;;;0.60;92.70;;;;;;5094102;28;20465;-74
2020/12/08 09:32:51;;;;;;;28.48;15.93;;;0.70;92.60;;;;;;5108259;28;20408;-74
2020/12/08 09:35:18;;;;;;;24.50;15.25;;;0.90;92.40;;;;;;5111749;28;20501;-74
2020/12/08 09:37:45;;;;;;;28.97;17.57;;;0.90;92.50;;;;;;5107723;28;20416;-74
2020/12/08 09:40:14;;;;;;;34.67;20.65;;;1.10;92.30;;;;;;5111911;28;20408;-75
2020/12/08 09:42:41;;;;;;;34.65;20.45;;;1.20;91.70;;;;;;5108427;28;20404;-75
2020/12/08 09:45:11;;;;;;;33.97;21.73;;;1.30;91.80;;;;;;5111664;28;20947;-74
2020/12/08 09:47:38;;;;;;;37.53;22.30;;;1.20;91.70;;;;;;5090191;28;20420;-74
2020/12/08 09:50:09;;;;;;;32.70;19.38;;;1.20;91.90;;;;;;5092845;28;20423;-75
2020/12/08 09:52:37;;;;;;;29.25;18.42;;;1.50;91.20;;;;;;5104428;28;20406;-74
2020/12/08 09:55:05;;;;;;;27.33;17.48;;;1.40;91.40;;;;;;5073262;28;20850;-74
2020/12/08 09:57:33;;;;;;;24.10;15.27;;;1.30;91.80;;;;;;5088476;27;20841;-74
2020/12/08 10:00:00;;;;;;;23.15;13.98;;;1.40;91.40;;;;;;5069295;28;20493;-74
2020/12/08 10:02:26;;;;;;;23.90;14.35;;;1.50;91.30;;;;;;5111120;28;20830;-74
2020/12/08 10:04:53;;;;;;;23.77;13.95;;;1.50;91.30;;;;;;5107664;28;20427;-74
2020/12/08 10:07:22;;;;;;;22.75;13.88;;;1.30;91.60;;;;;;5092987;28;20435;-74
2020/12/08 10:09:50;;;;;;;26.70;14.97;;;1.30;91.80;;;;;;5107108;28;20453;-74
2020/12/08 10:12:17;;;;;;;23.73;14.45;;;1.30;92.10;;;;;;5093586;28;20411;-74
2020/12/08 10:14:45;;;;;;;24.88;14.35;;;1.30;92.00;;;;;;5088943;28;20447;-74
2020/12/08 10:17:12;;;;;;;21.90;13.93;;;1.40;91.80;;;;;;5093111;28;20457;-74
2020/12/08 10:19:40;;;;;;;23.92;15.10;;;1.40;91.80;;;;;;5082073;28;20463;-74
2020/12/08 10:22:08;;;;;;;32.90;20.05;;;1.40;91.90;;;;;;5097499;28;20408;-74
2020/12/08 10:24:35;;;;;;;32.58;20.13;;;1.50;92.20;;;;;;5102546;28;20417;-74
2020/12/08 10:27:02;;;;;;;41.05;23.00;;;1.60;91.70;;;;;;5096377;27;20418;-74
2020/12/08 10:29:29;;;;;;;29.08;18.42;;;1.60;91.70;;;;;;5113248;27;20412;-74
2020/12/08 10:31:56;;;;;;;32.33;19.27;;;1.60;91.90;;;;;;5093136;28;20408;-74
2020/12/08 10:34:22;;;;;;;31.83;18.33;;;1.60;92.00;;;;;;5093389;28;20432;-74
2020/12/08 10:36:51;;;;;;;29.08;17.20;;;1.70;92.10;;;;;;5089478;28;20412;-74
2020/12/08 10:39:20;;;;;;;27.35;17.58;;;1.70;92.00;;;;;;5110791;28;20482;-74
2020/12/08 10:41:48;;;;;;;49.00;26.30;;;1.80;91.90;;;;;;5089689;28;20431;-74
2020/12/08 10:44:16;;;;;;;37.07;19.87;;;1.90;91.80;;;;;;5092873;28;20473;-74
2020/12/08 10:46:43;;;;;;;43.95;23.83;;;2.00;91.60;;;;;;5107125;28;20862;-74
2020/12/08 10:49:09;;;;;;;37.08;20.58;;;2.00;91.70;;;;;;5092827;28;20454;-74
2020/12/08 10:51:35;;;;;;;39.63;23.27;;;1.90;91.70;;;;;;5089386;28;20407;-74
2020/12/08 10:54:04;;;;;;;36.78;21.77;;;2.00;92.10;;;;;;5110812;28;20468;-75
2020/12/08 10:56:31;;;;;;;35.27;20.77;;;2.10;91.20;;;;;;5089501;28;20415;-74
2020/12/08 10:59:01;;;;;;;36.40;19.90;;;2.10;91.40;;;;;;5113878;28;20429;-74
2020/12/08 11:01:32;;;;;;;32.15;19.92;;;2.00;91.40;;;;;;5122217;28;20401;-74
2020/12/08 11:04:01;;;;;;;29.77;17.50;;;2.00;91.50;;;;;;5113276;28;20461;-74
2020/12/08 11:06:28;;;;;;;22.95;15.18;;;2.10;91.70;;;;;;5093246;28;20392;-74
2020/12/08 11:08:58;;;;;;;27.75;15.82;;;2.10;91.50;;;;;;5097148;28;20458;-74
2020/12/08 11:11:26;;;;;;;27.13;15.90;;;2.20;91.60;;;;;;5114296;28;20442;-74
2020/12/08 11:13:54;;;;;;;25.33;16.13;;;2.30;91.60;;;;;;5084255;28;20416;-74
2020/12/08 11:16:22;;;;;;;26.97;16.07;;;2.40;91.40;;;;;;5097261;28;20412;-75
2020/12/08 11:18:50;;;;;;;26.33;15.10;;;2.40;91.40;;;;;;5091815;28;20404;-74
2020/12/08 11:21:23;;;;;;;24.90;14.65;;;2.40;91.10;;;;;;5114626;28;20392;-74
2020/12/08 11:23:49;;;;;;;28.13;16.75;;;2.40;91.10;;;;;;5088962;28;20777;-75
2020/12/08 11:26:16;;;;;;;25.45;15.55;;;2.50;91.10;;;;;;5081992;28;20767;-74
2020/12/08 11:28:45;;;;;;;25.33;14.88;;;2.50;91.10;;;;;;5083084;28;20398;-75
2020/12/08 11:31:11;;;;;;;27.58;15.88;;;2.60;90.90;;;;;;5076099;28;20417;-74
2020/12/08 11:33:43;;;;;;;24.77;15.55;;;2.70;90.70;;;;;;5098145;28;20485;-74
2020/12/08 11:36:10;;;;;;;27.38;16.45;;;2.70;90.70;;;;;;5096279;28;20392;-75
2020/12/08 11:38:41;;;;;;;26.30;16.05;;;2.60;90.60;;;;;;5100835;28;20445;-74
2020/12/08 11:41:10;;;;;;;26.10;15.93;;;2.70;90.80;;;;;;5116883;28;20400;-74
2020/12/08 11:43:37;;;;;;;24.40;15.98;;;2.70;90.80;;;;;;5127306;28;20408;-74
2020/12/08 11:46:06;;;;;;;29.38;17.75;;;2.80;90.70;;;;;;5078343;28;20430;-74
2020/12/08 11:48:34;;;;;;;26.15;15.98;;;2.80;90.80;;;;;;5088568;28;20432;-74
2020/12/08 11:51:00;;;;;;;25.17;16.10;;;2.80;90.70;;;;;;5110594;28;20461;-74
2020/12/08 11:53:27;;;;;;;28.38;16.27;;;2.80;90.70;;;;;;5113964;28;20411;-75
2020/12/08 11:55:56;;;;;;;27.10;15.68;;;2.80;90.80;;;;;;5094857;28;20949;-75
2020/12/08 11:58:22;;;;;;;26.33;15.82;;;2.90;90.70;;;;;;5075709;28;20420;-74
2020/12/08 12:00:48;;;;;;;39.20;22.00;;;2.90;90.50;;;;;;5091004;28;20760;-74
2020/12/08 12:03:15;;;;;;;43.30;24.25;;;2.90;90.60;;;;;;5113690;28;20495;-74
2020/12/08 12:05:42;;;;;;;38.58;22.17;;;3.00;90.70;;;;;;5110508;28;20408;-75
2020/12/08 12:08:08;;;;;;;34.10;20.20;;;3.10;90.80;;;;;;5113865;28;20424;-74
2020/12/08 12:10:37;;;;;;;36.25;19.98;;;3.60;90.70;;;;;;5092421;28;20549;-75
2020/12/08 12:13:05;;;;;;;29.55;17.20;;;4.40;88.00;;;;;;5113647;28;20437;-74
2020/12/08 12:15:31;;;;;;;23.40;14.85;;;5.00;85.30;;;;;;5109930;28;20406;-75
2020/12/08 12:17:58;;;;;;;23.52;14.43;;;5.40;82.60;;;;;;5113286;28;20444;-75
2020/12/08 12:20:24;;;;;;;21.90;14.00;;;6.10;82.30;;;;;;5095529;28;20442;-75
2020/12/08 12:22:51;;;;;;;18.83;12.02;;;6.50;78.80;;;;;;5109531;28;20535;-75
2020/12/08 12:25:18;;;;;;;10.32;6.40;;;6.50;77.50;;;;;;5078620;28;20428;-75
2020/12/08 12:27:47;;;;;;;9.05;5.35;;;7.00;76.40;;;;;;5088031;28;21145;-75
2020/12/08 12:30:14;;;;;;;9.77;5.40;;;7.60;73.70;;;;;;5095176;28;20765;-75
2020/12/08 12:32:43;;;;;;;7.88;4.72;;;7.90;71.90;;;;;;5109734;28;20507;-74
2020/12/08 12:35:12;;;;;;;7.55;4.72;;;7.90;70.60;;;;;;5095497;28;20408;-75
2020/12/08 12:37:38;;;;;;;7.47;4.97;;;7.60;71.30;;;;;;5091278;28;20416;-75